Time;durP1;ratioP1;P1;durP2;ratioP2;P2;SDS_P1;SDS_P2;PMS_P1;PMS_P2;Temp;Humidity;BMP_temperature;BMP_pressure;BME280_temperature;BME280_humidity;BME280_pressure;Samples;Min_cycle;Max_cycle;Signal;HPM_P1;HPM_P2
2022/11/20 00:00:40;;;;;;;27.07;19.83;;;0.80;99.90;;;;;;4992463;28;20177;-72
2022/11/20 00:03:06;;;;;;;28.43;20.53;;;0.80;99.90;;;;;;4991415;28;20261;-72
2022/11/20 00:05:34;;;;;;;26.97;19.77;;;0.80;99.90;;;;;;4995383;28;20235;-73
2022/11/20 00:08:00;;;;;;;26.87;20.47;;;0.90;99.90;;;;;;4988318;28;20716;-73
2022/11/20 00:10:26;;;;;;;28.67;20.50;;;0.90;99.90;;;;;;4994955;28;20181;-74
2022/11/20 00:12:52;;;;;;;29.33;20.23;;;0.90;99.90;;;;;;4990954;28;20209;-72
2022/11/20 00:15:17;;;;;;;27.00;20.00;;;0.80;99.90;;;;;;4987784;28;20206;-72
2022/11/20 00:17:43;;;;;;;29.43;21.03;;;0.90;99.90;;;;;;4991139;28;20258;-72
2022/11/20 00:20:09;;;;;;;29.30;21.97;;;0.90;99.90;;;;;;5000525;28;20231;-72
2022/11/20 00:22:35;;;;;;;30.80;21.60;;;0.80;99.90;;;;;;4999885;28;20278;-71
2022/11/20 00:25:00;;;;;;;31.07;22.03;;;0.70;99.90;;;;;;4989592;28;20592;-71
2022/11/20 00:27:26;;;;;;;29.60;20.53;;;0.70;99.90;;;;;;4991426;28;20182;-72
2022/11/20 00:29:51;;;;;;;25.83;19.00;;;0.70;99.90;;;;;;4992355;28;20202;-71
2022/11/20 00:32:17;;;;;;;28.90;21.37;;;0.80;99.90;;;;;;4990727;28;20185;-72
2022/11/20 00:34:43;;;;;;;30.93;21.77;;;0.80;99.90;;;;;;4994153;28;20205;-72
2022/11/20 00:37:08;;;;;;;26.30;19.80;;;0.80;99.90;;;;;;5008564;28;20189;-73
2022/11/20 00:39:34;;;;;;;31.70;20.87;;;0.80;99.90;;;;;;4995494;28;20239;-73
2022/11/20 00:41:59;;;;;;;30.20;22.00;;;0.80;99.90;;;;;;4997099;28;20204;-73
2022/11/20 00:44:25;;;;;;;26.03;18.47;;;0.80;99.90;;;;;;4990241;28;20205;-73
2022/11/20 00:46:50;;;;;;;27.80;20.60;;;0.90;99.90;;;;;;4991094;28;20197;-72
2022/11/20 00:49:16;;;;;;;28.37;19.93;;;0.80;99.90;;;;;;4991302;28;20194;-72
2022/11/20 00:51:42;;;;;;;29.30;20.63;;;0.80;99.90;;;;;;5008334;28;20180;-73
2022/11/20 00:54:07;;;;;;;30.00;21.70;;;0.80;99.90;;;;;;4990155;28;20225;-72
2022/11/20 00:56:33;;;;;;;26.30;19.47;;;0.90;99.90;;;;;;4992498;28;20249;-72
2022/11/20 00:59:00;;;;;;;29.60;20.83;;;1.00;99.90;;;;;;4992259;28;20649;-71
2022/11/20 01:01:28;;;;;;;26.63;19.30;;;0.90;99.90;;;;;;4988637;28;20730;-73
2022/11/20 01:03:56;;;;;;;27.57;20.10;;;0.90;99.90;;;;;;4994485;28;20214;-74
2022/11/20 01:06:22;;;;;;;29.47;21.43;;;1.00;99.90;;;;;;4997844;28;20185;-73
2022/11/20 01:08:48;;;;;;;27.67;20.60;;;0.90;99.90;;;;;;5002354;28;20200;-73
2022/11/20 01:11:21;;;;;;;26.23;18.70;;;0.90;99.90;;;;;;4988622;28;20233;-73
2022/11/20 01:13:48;;;;;;;26.90;20.17;;;0.90;99.90;;;;;;4989597;28;20245;-72
2022/11/20 01:16:19;;;;;;;27.27;20.33;;;1.00;99.90;;;;;;4992521;28;20190;-73
2022/11/20 01:18:48;;;;;;;27.40;19.70;;;1.00;99.90;;;;;;4980399;28;20182;-73
2022/11/20 01:21:19;;;;;;;25.53;19.87;;;1.10;99.90;;;;;;4991187;28;20216;-73
2022/11/20 01:23:45;;;;;;;27.53;18.97;;;1.10;99.90;;;;;;4984241;28;20233;-73
2022/11/20 01:26:20;;;;;;;25.47;18.57;;;1.20;99.90;;;;;;4998550;28;20182;-72
2022/11/20 01:28:46;;;;;;;25.55;19.88;;;1.10;99.90;;;;;;4984649;28;20181;-72
2022/11/20 01:31:14;;;;;;;25.20;19.70;;;1.20;99.90;;;;;;4991543;28;20253;-72
2022/11/20 01:33:40;;;;;;;24.73;18.65;;;1.10;99.90;;;;;;4991106;28;20669;-72
2022/11/20 01:36:07;;;;;;;23.58;17.98;;;1.10;99.90;;;;;;4991928;28;20232;-72
2022/11/20 01:38:33;;;;;;;25.90;18.52;;;1.20;99.90;;;;;;4991564;28;20185;-72
2022/11/20 01:40:58;;;;;;;24.13;17.47;;;1.30;99.90;;;;;;5002938;28;20193;-72
2022/11/20 01:43:25;;;;;;;23.33;17.67;;;1.30;99.90;;;;;;4991390;28;20210;-72
2022/11/20 01:46:14;;;;;;;26.40;18.65;;;1.30;99.90;;;;;;4990711;28;20189;-72
2022/11/20 01:48:56;;;;;;;26.60;18.60;;;1.30;99.90;;;;;;4991606;28;20181;-71
2022/11/20 01:51:40;;;;;;;27.30;19.15;;;1.40;99.90;;;;;;4990222;28;20604;-73
2022/11/20 01:54:18;;;;;;;23.30;17.87;;;1.40;99.90;;;;;;4994258;28;20224;-72
2022/11/20 01:56:45;;;;;;;22.92;17.38;;;1.50;99.90;;;;;;4999480;28;20648;-73
2022/11/20 01:59:15;;;;;;;24.27;18.63;;;1.50;99.90;;;;;;4995853;28;20587;-73
2022/11/20 02:01:41;;;;;;;24.97;18.17;;;1.50;99.90;;;;;;4988807;28;20212;-73
2022/11/20 02:04:08;;;;;;;27.23;20.20;;;1.50;99.90;;;;;;4993751;28;20312;-73
2022/11/20 02:06:48;;;;;;;28.33;20.13;;;1.60;99.90;;;;;;4995492;28;20264;-74
2022/11/20 02:09:14;;;;;;;25.45;18.92;;;1.50;99.90;;;;;;4989751;28;20338;-72
2022/11/20 02:11:40;;;;;;;24.33;18.10;;;1.50;99.90;;;;;;4993662;28;20236;-72
2022/11/20 02:14:06;;;;;;;27.58;19.42;;;1.50;99.90;;;;;;5002524;28;20296;-72
2022/11/20 02:16:36;;;;;;;24.97;18.43;;;1.60;99.90;;;;;;4993769;28;20269;-72
2022/11/20 02:19:06;;;;;;;28.30;20.42;;;1.50;99.90;;;;;;4990635;28;20663;-72
2022/11/20 02:21:48;;;;;;;26.40;18.67;;;1.30;99.90;;;;;;4993755;28;20186;-73
2022/11/20 02:24:14;;;;;;;26.50;18.90;;;1.40;99.90;;;;;;4982446;28;20272;-72
2022/11/20 02:26:43;;;;;;;24.43;17.63;;;1.50;99.90;;;;;;3482184;28;21513;-71
2022/11/20 02:29:09;;;;;;;24.92;18.35;;;1.50;99.90;;;;;;3482757;28;20644;-72
2022/11/20 02:31:41;;;;;;;26.23;18.27;;;1.40;99.90;;;;;;3440459;28;22994;-71
2022/11/20 02:34:07;;;;;;;26.30;20.55;;;1.30;99.90;;;;;;3489705;28;22694;-72
2022/11/20 02:36:35;;;;;;;26.23;19.02;;;1.30;99.90;;;;;;3532096;28;20207;-72
2022/11/20 02:39:01;;;;;;;21.45;17.63;;;1.40;99.90;;;;;;3552221;28;22667;-71
2022/11/20 02:41:32;;;;;;;22.95;17.88;;;1.60;99.90;;;;;;3584627;28;21366;-71
2022/11/20 02:43:58;;;;;;;24.17;18.08;;;1.60;99.90;;;;;;3843007;28;20216;-76
2022/11/20 02:46:24;;;;;;;24.23;18.60;;;1.60;99.90;;;;;;3959729;28;20416;-74
2022/11/20 02:48:50;;;;;;;19.60;15.95;;;1.70;99.90;;;;;;3886977;28;21508;-75
2022/11/20 02:51:15;;;;;;;24.65;18.05;;;1.70;99.90;;;;;;3989267;28;23359;-75
2022/11/20 02:53:41;;;;;;;26.52;19.65;;;1.70;99.90;;;;;;4003410;28;20209;-76
2022/11/20 02:56:07;;;;;;;25.98;19.42;;;1.60;99.90;;;;;;4711787;28;20182;-72
2022/11/20 02:58:32;;;;;;;23.17;17.42;;;1.60;99.90;;;;;;4993420;28;20177;-72
2022/11/20 03:00:58;;;;;;;27.90;18.90;;;1.50;99.90;;;;;;4997426;28;20228;-73
2022/11/20 03:03:23;;;;;;;25.67;19.63;;;1.60;99.90;;;;;;5003391;28;20228;-72
2022/11/20 03:05:49;;;;;;;23.33;17.52;;;1.50;99.90;;;;;;4980447;28;20183;-72
2022/11/20 03:08:15;;;;;;;26.48;19.35;;;1.50;99.90;;;;;;4981974;28;20197;-72
2022/11/20 03:10:40;;;;;;;26.80;19.33;;;1.40;99.90;;;;;;4992269;28;20509;-73
2022/11/20 03:13:06;;;;;;;25.75;18.58;;;1.20;99.90;;;;;;4990547;28;20218;-72
2022/11/20 03:15:31;;;;;;;24.08;19.02;;;1.20;99.90;;;;;;4991534;28;20201;-72
2022/11/20 03:17:57;;;;;;;25.52;19.13;;;1.20;99.90;;;;;;4988934;28;20720;-72
2022/11/20 03:20:23;;;;;;;25.60;18.83;;;1.20;99.90;;;;;;4993522;28;20224;-72
2022/11/20 03:22:49;;;;;;;23.37;17.40;;;1.10;99.90;;;;;;4992107;28;20188;-72
2022/11/20 03:25:15;;;;;;;27.77;19.83;;;1.20;99.90;;;;;;4990840;28;20206;-73
2022/11/20 03:27:40;;;;;;;25.80;18.48;;;1.20;99.90;;;;;;4998913;28;20260;-72
2022/11/20 03:30:06;;;;;;;25.47;19.27;;;1.10;99.90;;;;;;4991308;28;20178;-72
2022/11/20 03:32:32;;;;;;;25.57;18.80;;;1.00;99.90;;;;;;4996960;28;20181;-72
2022/11/20 03:34:58;;;;;;;26.35;20.27;;;1.00;99.90;;;;;;4998585;28;20193;-72
2022/11/20 03:37:23;;;;;;;27.40;18.27;;;1.10;99.90;;;;;;4991541;28;20189;-73
2022/11/20 03:39:49;;;;;;;27.13;20.37;;;1.00;99.90;;;;;;4994563;28;20186;-72
2022/11/20 03:44:59;;;;;;;29.60;20.97;;;1.00;99.90;;;;;;4990265;28;20241;-72
2022/11/20 03:47:24;;;;;;;27.97;20.97;;;1.00;99.90;;;;;;4997197;28;20223;-73
2022/11/20 03:49:50;;;;;;;28.77;18.90;;;1.10;99.90;;;;;;4995535;28;20188;-73
2022/11/20 03:52:15;;;;;;;29.43;20.83;;;1.10;99.90;;;;;;4990083;28;20239;-71
2022/11/20 03:54:41;;;;;;;27.20;19.67;;;1.10;99.90;;;;;;4993175;28;20213;-72
2022/11/20 03:57:06;;;;;;;29.87;20.67;;;1.20;99.90;;;;;;4988739;28;20189;-73
2022/11/20 03:59:32;;;;;;;28.87;20.07;;;1.10;99.90;;;;;;4987767;28;20201;-72
2022/11/20 04:01:57;;;;;;;29.80;20.03;;;1.20;99.90;;;;;;4987035;28;20174;-72
2022/11/20 04:04:23;;;;;;;30.23;20.47;;;1.20;99.90;;;;;;4992664;28;20289;-72
2022/11/20 04:06:49;;;;;;;27.30;18.97;;;1.10;99.90;;;;;;5000493;28;20185;-72
2022/11/20 04:09:15;;;;;;;25.38;17.98;;;1.10;99.90;;;;;;5007021;28;20184;-72
2022/11/20 04:11:41;;;;;;;26.97;19.13;;;1.30;99.90;;;;;;4992403;28;20255;-73
2022/11/20 04:14:13;;;;;;;28.83;19.93;;;1.30;99.90;;;;;;4986822;28;20688;-73
2022/11/20 04:16:39;;;;;;;27.57;20.30;;;1.30;99.90;;;;;;5001496;28;20188;-72
2022/11/20 04:19:09;;;;;;;27.63;19.90;;;1.30;99.90;;;;;;5007119;28;20655;-73
2022/11/20 04:21:34;;;;;;;27.73;17.80;;;1.30;99.90;;;;;;4993285;28;20281;-73
2022/11/20 04:24:00;;;;;;;28.63;19.50;;;1.40;99.90;;;;;;4990867;28;20752;-72
2022/11/20 04:26:27;;;;;;;30.53;20.30;;;1.40;99.90;;;;;;4993878;28;20185;-72
2022/11/20 04:28:54;;;;;;;26.97;19.97;;;1.30;99.90;;;;;;4989869;28;20265;-73
2022/11/20 04:31:25;;;;;;;24.13;18.00;;;1.30;99.90;;;;;;4987888;28;20194;-73
2022/11/20 04:33:51;;;;;;;24.17;18.07;;;1.30;99.90;;;;;;5000668;28;20861;-73
2022/11/20 04:36:18;;;;;;;27.27;19.52;;;1.40;99.90;;;;;;4991707;28;20197;-73
2022/11/20 04:38:44;;;;;;;27.03;19.47;;;1.30;99.90;;;;;;4990635;28;20217;-72
2022/11/20 04:41:15;;;;;;;27.93;19.40;;;1.40;99.90;;;;;;4992218;28;20178;-73
2022/11/20 04:43:41;;;;;;;27.48;19.77;;;1.40;99.90;;;;;;4995053;28;20219;-73
2022/11/20 04:46:06;;;;;;;24.50;18.13;;;1.50;99.90;;;;;;4996728;28;20654;-72
2022/11/20 04:48:32;;;;;;;24.20;18.47;;;1.40;99.90;;;;;;4993997;28;20189;-72
2022/11/20 04:51:02;;;;;;;26.70;19.43;;;1.40;99.90;;;;;;4991846;28;20192;-72
2022/11/20 04:53:27;;;;;;;26.77;18.83;;;1.40;99.90;;;;;;4991642;28;20198;-73
2022/11/20 04:56:00;;;;;;;27.23;19.37;;;1.40;99.90;;;;;;4992052;28;20688;-73
2022/11/20 04:58:25;;;;;;;29.90;20.13;;;1.50;99.90;;;;;;4996909;28;20181;-72
2022/11/20 05:00:51;;;;;;;29.33;21.07;;;1.50;99.90;;;;;;4992032;28;20720;-72
2022/11/20 05:03:17;;;;;;;27.00;19.83;;;1.40;99.90;;;;;;4988823;28;20190;-73
2022/11/20 05:05:42;;;;;;;29.13;18.83;;;1.30;99.90;;;;;;5002340;28;20247;-72
2022/11/20 05:08:08;;;;;;;29.40;21.00;;;1.40;99.90;;;;;;4995303;28;20185;-72
2022/11/20 05:10:33;;;;;;;29.30;20.73;;;1.50;99.90;;;;;;4991822;28;20194;-72
2022/11/20 05:12:59;;;;;;;28.93;20.53;;;1.50;99.90;;;;;;4991148;28;20667;-72
2022/11/20 05:15:24;;;;;;;29.87;20.10;;;1.50;99.90;;;;;;4994192;28;20210;-71
2022/11/20 05:17:52;;;;;;;32.53;21.77;;;1.40;99.90;;;;;;4997328;28;20744;-73
2022/11/20 05:20:18;;;;;;;30.77;20.20;;;1.30;99.90;;;;;;4991857;28;20177;-72
2022/11/20 05:22:44;;;;;;;28.23;20.80;;;1.40;99.90;;;;;;5001159;28;20181;-72
2022/11/20 05:25:10;;;;;;;28.00;20.50;;;1.40;99.90;;;;;;4996283;28;20208;-72
2022/11/20 05:27:36;;;;;;;27.70;19.83;;;1.50;99.90;;;;;;5001359;28;20264;-72
2022/11/20 05:30:03;;;;;;;29.30;20.73;;;1.40;99.90;;;;;;4986982;28;20657;-72
2022/11/20 05:32:29;;;;;;;29.03;19.63;;;1.40;99.90;;;;;;4997385;28;20178;-72
2022/11/20 05:34:54;;;;;;;26.43;19.27;;;1.50;99.90;;;;;;4997907;28;20672;-72
2022/11/20 05:37:20;;;;;;;28.00;20.10;;;1.50;99.90;;;;;;4988859;28;20182;-72
2022/11/20 05:39:45;;;;;;;29.53;19.70;;;1.50;99.90;;;;;;5007172;28;20177;-73
2022/11/20 05:44:56;;;;;;;30.97;20.10;;;1.60;99.90;;;;;;4995263;28;20228;-73
2022/11/20 05:47:21;;;;;;;27.40;19.17;;;1.70;99.90;;;;;;4994978;28;20235;-73
2022/11/20 05:49:47;;;;;;;25.30;19.70;;;1.60;99.90;;;;;;4996485;28;20641;-73
2022/11/20 05:52:12;;;;;;;25.97;20.03;;;1.60;99.90;;;;;;4991544;28;20248;-72
2022/11/20 05:54:38;;;;;;;30.20;20.73;;;1.50;99.90;;;;;;5000283;28;20564;-72
2022/11/20 05:57:03;;;;;;;29.53;20.03;;;1.50;99.90;;;;;;5002053;28;20212;-73
2022/11/20 05:59:29;;;;;;;29.33;19.80;;;1.50;99.90;;;;;;4999892;28;20186;-73
2022/11/20 06:01:55;;;;;;;31.23;21.80;;;1.50;99.90;;;;;;4994094;28;20188;-73
2022/11/20 06:04:20;;;;;;;28.70;20.45;;;1.50;99.90;;;;;;4999925;28;20209;-73
2022/11/20 06:06:46;;;;;;;29.85;19.85;;;1.50;99.90;;;;;;4995017;28;20214;-73
2022/11/20 06:09:11;;;;;;;29.42;19.75;;;1.50;99.90;;;;;;4994932;28;20182;-72
2022/11/20 06:11:37;;;;;;;29.48;20.90;;;1.60;99.90;;;;;;4993832;28;20272;-72
2022/11/20 06:14:02;;;;;;;27.92;19.42;;;1.50;99.90;;;;;;4989926;28;20591;-71
2022/11/20 06:16:28;;;;;;;24.92;18.40;;;1.50;99.90;;;;;;4994849;28;20182;-72
2022/11/20 06:18:54;;;;;;;30.13;20.80;;;1.60;99.90;;;;;;4996650;28;20213;-73
2022/11/20 06:21:22;;;;;;;30.80;20.63;;;1.60;99.90;;;;;;4994003;28;20264;-73
2022/11/20 06:23:49;;;;;;;29.63;20.92;;;1.60;99.90;;;;;;5006172;28;20262;-73
2022/11/20 06:26:26;;;;;;;31.75;22.02;;;1.60;99.90;;;;;;4994784;28;20608;-73
2022/11/20 06:28:52;;;;;;;28.63;20.17;;;1.60;99.90;;;;;;4989173;28;20228;-72
2022/11/20 06:31:20;;;;;;;31.45;21.35;;;1.60;99.90;;;;;;5000068;28;20198;-72
2022/11/20 06:33:46;;;;;;;30.55;20.23;;;1.60;99.90;;;;;;4999692;28;20217;-72
2022/11/20 06:36:13;;;;;;;29.42;20.00;;;1.60;99.90;;;;;;4994303;28;20182;-72
2022/11/20 06:38:40;;;;;;;28.63;21.02;;;1.70;99.90;;;;;;4986290;28;20236;-72
2022/11/20 06:41:09;;;;;;;32.97;21.83;;;1.70;99.90;;;;;;4985821;28;20193;-73
2022/11/20 06:43:35;;;;;;;26.98;20.02;;;1.70;99.90;;;;;;4987681;28;20237;-72
2022/11/20 06:46:00;;;;;;;29.23;21.52;;;1.80;99.90;;;;;;4993498;28;20600;-72
2022/11/20 06:48:27;;;;;;;31.90;20.77;;;1.80;99.90;;;;;;4992456;28;20280;-71
2022/11/20 06:50:53;;;;;;;29.05;19.65;;;1.80;99.90;;;;;;4994123;28;20655;-72
2022/11/20 06:53:18;;;;;;;28.90;20.02;;;1.90;99.90;;;;;;4995688;28;20240;-72
2022/11/20 06:55:45;;;;;;;27.23;19.17;;;1.90;99.90;;;;;;4994402;28;20684;-72
2022/11/20 06:58:12;;;;;;;31.30;22.50;;;1.90;99.90;;;;;;4987284;28;20182;-73
2022/11/20 07:00:38;;;;;;;29.02;20.95;;;1.90;99.90;;;;;;4998133;28;20264;-73
2022/11/20 07:03:09;;;;;;;32.50;22.13;;;1.90;99.90;;;;;;5002687;28;20719;-73
2022/11/20 07:05:35;;;;;;;31.10;21.67;;;1.80;99.90;;;;;;5007729;28;20204;-73
2022/11/20 07:08:02;;;;;;;33.33;21.70;;;1.70;99.90;;;;;;5002064;28;20189;-73
2022/11/20 07:10:27;;;;;;;32.60;23.75;;;1.80;99.90;;;;;;4993914;28;20615;-73
2022/11/20 07:12:53;;;;;;;31.52;21.60;;;1.90;99.90;;;;;;4992131;28;20209;-72
2022/11/20 07:15:21;;;;;;;27.70;20.08;;;1.90;99.90;;;;;;4993528;28;20200;-73
2022/11/20 07:17:47;;;;;;;29.92;19.75;;;2.00;99.90;;;;;;4988580;28;20189;-72
2022/11/20 07:20:13;;;;;;;29.60;20.88;;;2.10;99.90;;;;;;5006239;28;20207;-72
2022/11/20 07:22:39;;;;;;;28.67;22.02;;;2.10;99.90;;;;;;5000015;28;20174;-73
2022/11/20 07:25:05;;;;;;;27.90;20.88;;;2.20;99.90;;;;;;4989651;28;20770;-72
2022/11/20 07:27:31;;;;;;;32.80;20.52;;;2.30;99.90;;;;;;4995694;28;20166;-72
2022/11/20 07:29:57;;;;;;;30.70;21.70;;;2.40;99.90;;;;;;4988421;28;20597;-73
2022/11/20 07:32:23;;;;;;;27.65;20.17;;;2.30;99.90;;;;;;4991047;28;20519;-72
2022/11/20 07:34:48;;;;;;;28.65;19.10;;;2.30;99.90;;;;;;5003082;28;20739;-72
2022/11/20 07:37:14;;;;;;;28.13;20.10;;;2.30;99.90;;;;;;4990923;28;20533;-72
2022/11/20 07:39:40;;;;;;;29.42;20.20;;;2.30;99.90;;;;;;4999762;28;20180;-73
2022/11/20 07:42:06;;;;;;;28.10;20.27;;;2.30;99.90;;;;;;4993233;28;20174;-73
2022/11/20 07:44:32;;;;;;;24.95;19.13;;;2.40;99.90;;;;;;4990154;28;20225;-73
2022/11/20 07:46:58;;;;;;;27.73;19.15;;;2.50;99.90;;;;;;4993185;28;20174;-73
2022/11/20 07:49:23;;;;;;;25.20;18.58;;;2.80;99.90;;;;;;4992443;28;20185;-73
2022/11/20 07:51:55;;;;;;;26.92;18.60;;;2.90;99.90;;;;;;4996955;28;20667;-72
2022/11/20 07:54:21;;;;;;;24.70;18.73;;;2.90;99.90;;;;;;5002453;28;20758;-75
2022/11/20 07:56:48;;;;;;;27.48;19.83;;;3.00;99.90;;;;;;4996401;28;20252;-74
2022/11/20 07:59:15;;;;;;;24.50;18.63;;;2.90;99.90;;;;;;4992783;28;20197;-74
2022/11/20 08:01:41;;;;;;;25.63;18.33;;;3.00;99.90;;;;;;4992432;28;20209;-74
2022/11/20 08:04:07;;;;;;;24.77;18.63;;;3.00;99.90;;;;;;4992432;28;20225;-75
2022/11/20 08:06:33;;;;;;;21.73;16.85;;;3.20;99.90;;;;;;4994962;28;20216;-74
2022/11/20 08:08:59;;;;;;;25.05;19.45;;;3.30;99.90;;;;;;4997701;28;20177;-74
2022/11/20 08:14:11;;;;;;;19.98;16.70;;;3.60;99.90;;;;;;4995759;28;20615;-73
2022/11/20 08:16:47;;;;;;;22.73;18.23;;;3.70;99.90;;;;;;4993464;28;20715;-73
2022/11/20 08:19:14;;;;;;;22.65;17.20;;;3.70;99.90;;;;;;4979483;28;20797;-72
2022/11/20 08:21:40;;;;;;;24.30;17.52;;;3.70;99.90;;;;;;4992393;28;20723;-75
2022/11/20 08:24:07;;;;;;;21.98;16.13;;;3.80;99.90;;;;;;4998052;28;20202;-71
2022/11/20 08:26:34;;;;;;;20.38;16.42;;;3.90;99.90;;;;;;4991058;28;20186;-71
2022/11/20 08:28:59;;;;;;;22.08;16.55;;;4.00;99.90;;;;;;5005610;28;20276;-70
2022/11/20 08:31:26;;;;;;;21.92;16.40;;;3.80;99.90;;;;;;4992632;28;20205;-71
2022/11/20 08:33:52;;;;;;;19.33;14.90;;;3.70;99.90;;;;;;4984164;28;20217;-70
2022/11/20 08:36:19;;;;;;;22.17;16.90;;;3.70;99.90;;;;;;4991801;28;20193;-70
2022/11/20 08:38:52;;;;;;;20.42;16.13;;;3.80;99.90;;;;;;4992395;28;20182;-70
2022/11/20 08:41:25;;;;;;;20.13;16.05;;;4.00;99.90;;;;;;4992479;28;20185;-73
2022/11/20 08:43:53;;;;;;;18.13;15.60;;;4.10;99.90;;;;;;4997266;28;20213;-76
2022/11/20 08:46:19;;;;;;;22.75;16.10;;;4.10;99.90;;;;;;4987778;28;20272;-75
2022/11/20 08:48:45;;;;;;;20.80;16.40;;;4.20;99.90;;;;;;4992540;28;20254;-75
2022/11/20 08:51:11;;;;;;;22.30;15.65;;;4.30;99.90;;;;;;4996346;28;20178;-75
2022/11/20 08:53:38;;;;;;;22.63;16.17;;;4.40;99.90;;;;;;4992160;28;20214;-75
2022/11/20 08:56:04;;;;;;;20.70;15.85;;;4.40;99.90;;;;;;4991470;28;20181;-75
2022/11/20 08:58:29;;;;;;;17.70;15.80;;;4.40;99.90;;;;;;4992526;28;20182;-75
2022/11/20 09:00:55;;;;;;;16.98;14.93;;;4.30;99.90;;;;;;4994841;28;20182;-70
2022/11/20 09:03:21;;;;;;;17.67;14.13;;;4.30;99.90;;;;;;4995319;28;20189;-70
2022/11/20 09:05:46;;;;;;;17.55;14.40;;;4.30;99.90;;;;;;4991981;28;20185;-70
2022/11/20 09:08:12;;;;;;;19.83;15.80;;;4.40;99.90;;;;;;4992344;28;20188;-70
2022/11/20 09:10:41;;;;;;;16.30;12.65;;;4.50;99.90;;;;;;5003542;28;20717;-70
2022/11/20 09:13:07;;;;;;;16.30;13.80;;;4.70;99.90;;;;;;4996676;28;20672;-70
2022/11/20 09:15:33;;;;;;;15.93;13.75;;;4.80;99.90;;;;;;4990830;28;20233;-70
2022/11/20 09:18:02;;;;;;;16.83;14.32;;;4.90;99.90;;;;;;4998573;28;20174;-71
2022/11/20 09:20:29;;;;;;;16.63;14.20;;;4.90;99.90;;;;;;5008370;28;20181;-71
2022/11/20 09:22:55;;;;;;;15.57;13.85;;;5.10;99.90;;;;;;4991739;28;20182;-71
2022/11/20 09:25:22;;;;;;;16.75;14.05;;;5.30;99.90;;;;;;4993766;28;20696;-71
2022/11/20 09:27:47;;;;;;;15.35;13.23;;;5.60;99.90;;;;;;4990904;28;20177;-72
2022/11/20 09:30:14;;;;;;;14.02;11.77;;;5.70;99.90;;;;;;4995731;28;20185;-72
2022/11/20 09:32:40;;;;;;;16.15;12.77;;;6.00;99.90;;;;;;4997055;28;20182;-72
2022/11/20 09:35:06;;;;;;;14.25;11.05;;;6.20;99.90;;;;;;5006547;28;20205;-72
2022/11/20 09:37:32;;;;;;;12.82;11.43;;;6.30;99.90;;;;;;5001264;28;20617;-72
2022/11/20 09:39:58;;;;;;;10.00;9.00;;;7.00;99.90;;;;;;4994356;28;20214;-74
2022/11/20 09:42:37;;;;;;;6.70;6.07;;;8.30;99.90;;;;;;4993988;28;20201;-74
2022/11/20 09:45:26;;;;;;;5.72;5.22;;;8.90;99.90;;;;;;4993885;28;20664;-74
2022/11/20 09:48:29;;;;;;;4.45;4.10;;;8.80;99.90;;;;;;4995424;28;20240;-74
2022/11/20 09:51:08;;;;;;;4.15;3.85;;;8.60;99.90;;;;;;4990827;28;20248;-74
2022/11/20 09:53:51;;;;;;;4.50;4.10;;;8.50;99.90;;;;;;4995379;28;20208;-74
2022/11/20 09:56:18;;;;;;;4.20;3.85;;;8.50;99.90;;;;;;4993657;28;20312;-74
2022/11/20 09:59:02;;;;;;;3.65;3.35;;;8.20;99.90;;;;;;5006940;28;20188;-74
2022/11/20 10:01:32;;;;;;;4.57;3.92;;;7.80;99.90;;;;;;4978496;28;20201;-71
2022/11/20 10:04:01;;;;;;;3.95;3.55;;;7.20;99.90;;;;;;4998956;28;20861;-72
2022/11/20 10:06:54;;;;;;;5.90;5.30;;;6.80;99.90;;;;;;4995818;28;20669;-71
2022/11/20 10:09:30;;;;;;;6.65;4.90;;;6.40;99.90;;;;;;5001827;28;20239;-72
2022/11/20 10:12:31;;;;;;;5.38;4.88;;;6.20;99.90;;;;;;4997194;28;20235;-74
2022/11/20 10:15:12;;;;;;;5.68;5.22;;;6.00;99.90;;;;;;4915334;29;20305;-73
2022/11/20 10:18:22;;;;;;;6.97;6.28;;;6.00;99.90;;;;;;4989731;28;20189;-73
2022/11/20 10:21:02;;;;;;;4.95;4.22;;;6.30;99.90;;;;;;4979855;28;20205;-73
2022/11/20 10:23:54;;;;;;;5.18;4.68;;;6.50;99.90;;;;;;4997819;28;20177;-73
2022/11/20 10:26:47;;;;;;;6.43;4.75;;;6.50;99.90;;;;;;4988191;28;20197;-73
2022/11/20 10:29:16;;;;;;;5.40;5.00;;;6.40;99.90;;;;;;4977829;28;20199;-73
2022/11/20 10:31:43;;;;;;;5.28;4.88;;;6.40;99.90;;;;;;4993288;28;20174;-73
2022/11/20 10:34:37;;;;;;;5.05;4.65;;;6.30;99.90;;;;;;4996786;28;20225;-73
2022/11/20 10:37:12;;;;;;;4.93;3.92;;;6.30;99.90;;;;;;4989562;28;20179;-73
2022/11/20 10:39:57;;;;;;;5.65;5.25;;;6.40;99.90;;;;;;5007890;28;20275;-73
2022/11/20 10:42:44;;;;;;;4.97;3.95;;;6.30;99.90;;;;;;4994066;28;20600;-73
2022/11/20 10:45:25;;;;;;;5.10;4.70;;;6.30;99.90;;;;;;4995372;28;20292;-73
2022/11/20 10:48:21;;;;;;;4.55;4.05;;;6.30;99.90;;;;;;4989413;28;20184;-73
2022/11/20 10:51:12;;;;;;;4.03;3.63;;;6.30;99.90;;;;;;4984245;28;20245;-73
2022/11/20 10:53:55;;;;;;;5.28;4.88;;;6.30;99.90;;;;;;4992942;28;20672;-73
2022/11/20 10:56:41;;;;;;;4.65;4.20;;;6.20;99.90;;;;;;5005016;28;20247;-72
2022/11/20 10:59:43;;;;;;;4.03;3.65;;;6.20;99.90;;;;;;5000276;28;20178;-73
2022/11/20 11:02:20;;;;;;;5.28;4.78;;;6.20;99.90;;;;;;4986624;28;20671;-73
2022/11/20 11:04:55;;;;;;;4.80;4.40;;;6.30;99.90;;;;;;4991508;28;20296;-73
2022/11/20 11:07:25;;;;;;;4.95;4.55;;;6.30;99.90;;;;;;4987719;28;20185;-73
2022/11/20 11:09:55;;;;;;;5.18;4.70;;;6.30;99.90;;;;;;5002652;28;20265;-73
2022/11/20 11:12:24;;;;;;;4.30;3.92;;;6.30;99.90;;;;;;4996529;28;20185;-73
2022/11/20 11:14:52;;;;;;;3.78;3.47;;;6.30;99.90;;;;;;4997249;28;20308;-73
2022/11/20 11:17:36;;;;;;;5.57;4.20;;;6.30;99.90;;;;;;4991679;28;20193;-73
2022/11/20 11:20:07;;;;;;;3.63;3.28;;;6.30;99.90;;;;;;4983902;28;20175;-73
2022/11/20 11:22:42;;;;;;;4.90;4.50;;;6.20;99.90;;;;;;4988269;28;20236;-73
2022/11/20 11:25:24;;;;;;;2.28;2.17;;;6.20;99.90;;;;;;4999409;28;20213;-73
2022/11/20 11:27:50;;;;;;;5.20;4.68;;;6.20;99.90;;;;;;4997167;28;20657;-73
2022/11/20 11:30:18;;;;;;;4.00;3.75;;;6.20;99.90;;;;;;4986872;28;20190;-73
2022/11/20 11:32:45;;;;;;;4.10;3.80;;;6.30;99.90;;;;;;4996442;28;20531;-73
2022/11/20 11:35:28;;;;;;;3.47;3.28;;;6.30;99.90;;;;;;4996655;28;20206;-73
2022/11/20 11:38:03;;;;;;;4.60;4.30;;;6.40;99.90;;;;;;4997459;28;20186;-73
2022/11/20 11:40:32;;;;;;;4.03;3.72;;;6.40;99.90;;;;;;4986694;28;20185;-73
2022/11/20 11:43:00;;;;;;;3.85;3.50;;;6.40;99.90;;;;;;4993732;28;20559;-74
2022/11/20 11:45:27;;;;;;;3.28;2.90;;;6.40;99.90;;;;;;4990644;28;20225;-74
2022/11/20 11:47:55;;;;;;;4.72;3.80;;;6.30;99.90;;;;;;4992682;28;20181;-73
2022/11/20 11:50:23;;;;;;;4.40;4.00;;;6.30;99.90;;;;;;4997106;28;20182;-74
2022/11/20 11:52:55;;;;;;;3.80;3.50;;;6.40;99.90;;;;;;4989952;28;20688;-73
2022/11/20 11:55:51;;;;;;;3.90;3.40;;;6.50;99.90;;;;;;4987264;28;20199;-74
2022/11/20 11:58:33;;;;;;;4.25;3.88;;;6.70;99.90;;;;;;4992465;28;20182;-73
2022/11/20 12:01:11;;;;;;;3.05;2.72;;;6.90;99.90;;;;;;4988445;28;20502;-73
2022/11/20 12:03:41;;;;;;;3.55;3.35;;;7.10;99.90;;;;;;4998278;28;20742;-74
2022/11/20 12:06:13;;;;;;;3.03;2.80;;;7.00;99.90;;;;;;4991860;28;20174;-74
2022/11/20 12:09:01;;;;;;;3.20;2.90;;;7.10;99.90;;;;;;4993921;28;20727;-73
2022/11/20 12:11:54;;;;;;;2.97;2.78;;;7.10;99.90;;;;;;4990878;28;20644;-73
2022/11/20 12:14:33;;;;;;;2.15;2.05;;;7.10;99.90;;;;;;5003035;28;20224;-73
2022/11/20 12:17:00;;;;;;;3.30;3.00;;;7.20;99.90;;;;;;4994869;28;20173;-73
2022/11/20 12:19:31;;;;;;;3.13;2.83;;;7.30;99.90;;;;;;4993902;28;20178;-75
2022/11/20 12:22:13;;;;;;;2.70;2.50;;;7.40;99.90;;;;;;4993954;28;20261;-75
2022/11/20 12:24:44;;;;;;;3.90;3.55;;;7.40;99.90;;;;;;4992398;28;20204;-75
2022/11/20 12:27:12;;;;;;;3.10;2.90;;;7.40;99.90;;;;;;4989231;28;20241;-73
2022/11/20 12:29:41;;;;;;;3.25;2.97;;;7.60;99.90;;;;;;4988622;28;20182;-73
2022/11/20 12:32:15;;;;;;;3.13;2.92;;;7.70;99.90;;;;;;4985568;28;20186;-72
2022/11/20 12:34:59;;;;;;;2.80;2.60;;;7.80;99.90;;;;;;4986639;28;20201;-73
2022/11/20 12:37:30;;;;;;;2.75;2.55;;;7.80;99.90;;;;;;4987436;28;20720;-73
2022/11/20 12:40:07;;;;;;;3.05;2.67;;;7.70;99.90;;;;;;5000475;28;20177;-73
2022/11/20 12:46:03;;;;;;;2.90;2.70;;;7.70;99.90;;;;;;4985208;28;20220;-72
2022/11/20 12:48:35;;;;;;;2.70;2.58;;;7.70;99.90;;;;;;4988888;28;20257;-72
2022/11/20 12:51:39;;;;;;;3.38;3.17;;;7.60;99.90;;;;;;4981947;28;20174;-72
2022/11/20 12:54:53;;;;;;;3.22;3.03;;;7.50;99.90;;;;;;4989185;28;20216;-72
2022/11/20 12:57:29;;;;;;;2.35;2.25;;;7.40;99.90;;;;;;4919183;28;20220;-72
2022/11/20 12:59:57;;;;;;;2.97;2.78;;;7.30;99.90;;;;;;5000148;28;20691;-72
2022/11/20 13:02:27;;;;;;;3.55;2.45;;;7.40;99.90;;;;;;4993862;28;20186;-73
2022/11/20 13:05:06;;;;;;;3.20;3.00;;;7.50;99.90;;;;;;4995525;28;20208;-72